createdAt,value
2017-06-10T00:01:15.880Z,93.54
2017-06-10T00:03:31.363Z,92.57
2017-06-10T00:05:46.812Z,92.67
2017-06-10T00:08:10.717Z,93.54
2017-06-10T00:10:26.170Z,93.05
2017-06-10T00:12:50.073Z,93.15
2017-06-10T00:15:13.950Z,92.1
2017-06-10T00:17:21.046Z,92.19
2017-06-10T00:19:44.908Z,92.96
2017-06-10T00:22:08.788Z,93.25
2017-06-10T00:24:10.612Z,93.54
2017-06-10T00:26:20.937Z,93.63
2017-06-10T00:28:44.884Z,93.92
2017-06-10T00:31:08.760Z,93.15
2017-06-10T00:33:25.161Z,93.44
2017-06-10T00:35:26.619Z,93.15
2017-06-10T00:37:50.494Z,92.38
2017-06-10T00:40:14.369Z,92.48
2017-06-10T00:42:29.822Z,94.01
2017-06-10T00:44:45.224Z,94.21
2017-06-10T00:47:00.699Z,94.26
2017-06-10T00:49:16.158Z,95.21
2017-06-10T00:51:40.061Z,95.89
2017-06-10T00:53:55.547Z,95.89
2017-06-10T00:56:19.419Z,95.36
2017-06-10T00:58:43.298Z,95.7
2017-06-10T01:01:07.169Z,95.03
2017-06-10T01:03:08.486Z,95.31
2017-06-10T01:05:32.399Z,95.98
2017-06-10T01:07:56.277Z,94.93
2017-06-10T01:10:11.755Z,94.83
2017-06-10T01:12:35.533Z,95.31
2017-06-10T01:14:59.408Z,94.83
2017-06-10T01:17:14.781Z,95.41
2017-06-10T01:19:39.692Z,96.27
2017-06-10T01:22:03.563Z,96.85
2017-06-10T01:24:27.440Z,96.56
2017-06-10T01:26:28.818Z,96.18
2017-06-10T01:28:35.847Z,96.22
2017-06-10T01:30:51.328Z,97.56
2017-06-10T01:32:53.145Z,97.86
2017-06-10T01:35:16.988Z,97.56
2017-06-10T01:37:32.441Z,96.99
2017-06-10T01:39:47.826Z,96.47
2017-06-10T01:42:11.620Z,97.09
2017-06-10T01:44:27.116Z,97.76
2017-06-10T01:46:42.577Z,99.2
2017-06-10T01:48:52.392Z,98.33
2017-06-10T01:51:16.299Z,99.29
2017-06-10T01:53:40.178Z,99.99
2017-06-10T01:55:55.557Z,99.99
2017-06-10T01:58:19.331Z,99.99
2017-06-10T02:00:43.110Z,99.99
2017-06-10T02:03:06.889Z,99.99
2017-06-10T02:05:30.760Z,99.99
2017-06-10T02:07:54.634Z,99.99
2017-06-10T02:10:10.016Z,99.99
2017-06-10T02:12:33.891Z,99.99
2017-06-10T02:14:35.199Z,99.99
2017-06-10T02:16:50.617Z,99.99
2017-06-10T02:19:14.492Z,99.99
2017-06-10T02:21:15.782Z,99.99
2017-06-10T02:23:31.222Z,99.99
2017-06-10T02:25:46.594Z,99.99
2017-06-10T02:28:10.472Z,99.99
2017-06-10T02:30:34.241Z,99.99
2017-06-10T02:32:49.621Z,99.99
2017-06-10T02:35:13.397Z,99.99
2017-06-10T02:37:28.774Z,99.99
2017-06-10T02:39:52.552Z,99.99
2017-06-10T02:42:16.331Z,99.99
2017-06-10T02:44:40.100Z,99.99
2017-06-10T02:47:03.878Z,99.99
2017-06-10T02:49:27.647Z,99.99
2017-06-10T02:51:51.425Z,99.99
2017-06-10T02:54:15.205Z,99.99
2017-06-10T02:56:38.989Z,99.99
2017-06-10T02:58:54.352Z,99.99
2017-06-10T03:01:09.708Z,99.99
2017-06-10T03:03:26.032Z,99.99
2017-06-10T03:05:49.813Z,99.99
2017-06-10T03:08:13.686Z,99.99
2017-06-10T03:10:38.486Z,99.99
2017-06-10T03:13:02.358Z,99.99
2017-06-10T03:15:26.242Z,99.99
2017-06-10T03:17:50.112Z,99.99
2017-06-10T03:20:14.918Z,99.99
2017-06-10T03:22:25.238Z,99.99
2017-06-10T03:24:49.148Z,99.99
2017-06-10T03:27:13.023Z,99.99
2017-06-10T03:29:36.801Z,99.99
2017-06-10T03:31:52.179Z,99.99
2017-06-10T03:34:16.058Z,99.99
2017-06-10T03:36:23.040Z,99.99
2017-06-10T03:38:38.492Z,99.99
2017-06-10T03:40:54.901Z,99.99
2017-06-10T03:43:18.794Z,99.99
2017-06-10T03:45:34.178Z,99.99
2017-06-10T03:47:59.076Z,99.99
2017-06-10T03:50:14.532Z,99.99
2017-06-10T03:52:40.378Z,99.99
2017-06-10T03:55:05.281Z,99.54
2017-06-10T03:57:21.787Z,99.87
2017-06-10T03:59:46.599Z,97.57
2017-06-10T04:02:10.464Z,97.24
2017-06-10T04:04:34.335Z,97.57
2017-06-10T04:06:58.212Z,95.26
2017-06-10T04:09:13.565Z,94.98
2017-06-10T04:11:37.470Z,93.39
2017-06-10T04:14:08.107Z,92.33
2017-06-10T04:16:31.984Z,92.14
2017-06-10T04:18:55.865Z,90.26
2017-06-10T04:21:11.412Z,81.81
2017-06-10T04:23:26.933Z,70.23
2017-06-10T04:25:42.520Z,62.85
2017-06-10T04:28:06.712Z,56.4
2017-06-10T04:30:31.011Z,52.59
2017-06-10T04:32:47.005Z,48.71
2017-06-10T04:34:48.993Z,45.92
2017-06-10T04:37:05.311Z,43.08
2017-06-10T04:39:32.142Z,42.11
2017-06-10T04:41:57.049Z,41.52
2017-06-10T04:44:22.047Z,39.35
2017-06-10T04:46:47.161Z,39.31
2017-06-10T04:49:12.373Z,37.39
2017-06-10T04:51:37.587Z,37.39
2017-06-10T04:54:04.849Z,35.86
2017-06-10T04:56:32.108Z,33.49
2017-06-10T04:58:57.528Z,28.91
2017-06-10T05:01:22.432Z,26.97
2017-06-10T05:03:24.672Z,25.91
2017-06-10T05:05:41.821Z,26.97
2017-06-10T05:08:07.555Z,23.61
2017-06-10T05:10:33.377Z,22.74
2017-06-10T05:12:50.817Z,21.37
2017-06-10T05:15:16.840Z,20.51
2017-06-10T05:17:25.821Z,19.94
2017-06-10T05:19:52.006Z,19.82
2017-06-10T05:22:17.469Z,16.24
2017-06-10T05:24:19.911Z,15.28
2017-06-10T05:26:47.384Z,14.97
2017-06-10T05:29:15.872Z,14.1
2017-06-10T05:31:43.407Z,15.05
2017-06-10T05:34:10.089Z,11.92
2017-06-10T05:36:30.286Z,12.1
2017-06-10T05:38:41.560Z,11.71
2017-06-10T05:41:10.459Z,10.74
2017-06-10T05:43:29.826Z,9.75
2017-06-10T05:45:43.202Z,9.05
2017-06-10T05:48:10.326Z,9.05
2017-06-10T05:50:37.481Z,9.45
2017-06-10T05:53:04.640Z,9.24
2017-06-10T05:55:31.795Z,9.84
2017-06-10T05:57:59.058Z,9.14
2017-06-10T06:00:17.815Z,8.45
2017-06-10T06:02:47.235Z,8.85
2017-06-10T06:05:16.638Z,10.33
2017-06-10T06:07:35.467Z,9.34
2017-06-10T06:10:02.953Z,9.44
2017-06-10T06:12:21.806Z,10.53
2017-06-10T06:14:55.830Z,12.49
2017-06-10T06:17:23.184Z,15.8
2017-06-10T06:19:52.476Z,12.88
2017-06-10T06:22:26.388Z,12.4
2017-06-10T06:24:46.879Z,12.19
2017-06-10T06:27:13.935Z,10.42
2017-06-10T06:29:40.986Z,11.99
2017-06-10T06:32:08.037Z,14.14
2017-06-10T06:34:35.201Z,17.35
2017-06-10T06:37:02.463Z,19.67
2017-06-10T06:39:37.413Z,20.15
2017-06-10T06:42:05.785Z,20.54
2017-06-10T06:44:31.402Z,20.46
2017-06-10T06:47:00.699Z,21.24
2017-06-10T06:49:19.241Z,19.89
2017-06-10T06:51:48.229Z,20.65
2017-06-10T06:54:15.076Z,20.46
2017-06-10T06:56:41.801Z,22.85
2017-06-10T06:59:09.367Z,25.28
2017-06-10T07:01:27.294Z,25.86
2017-06-10T07:03:53.620Z,27.26
2017-06-10T07:06:19.850Z,27.96
2017-06-10T07:08:52.838Z,24.81
2017-06-10T07:11:18.853Z,23.84
2017-06-10T07:13:44.875Z,23.94
2017-06-10T07:16:10.912Z,23.37
2017-06-10T07:18:28.323Z,25.18
2017-06-10T07:20:54.254Z,23.66
2017-06-10T07:23:11.578Z,24.32
2017-06-10T07:25:38.423Z,24.61
2017-06-10T07:28:04.250Z,25.29
2017-06-10T07:30:32.116Z,23.29
2017-06-10T07:32:59.988Z,27.74
2017-06-10T07:35:02.281Z,28.82
2017-06-10T07:37:28.067Z,28.85
2017-06-10T07:39:45.294Z,27.1
2017-06-10T07:42:11.118Z,27.86
2017-06-10T07:44:36.831Z,28.05
2017-06-10T07:47:03.586Z,28.69
2017-06-10T07:49:31.350Z,28.91
2017-06-10T07:51:57.071Z,29.96
2017-06-10T07:54:23.812Z,29.28
2017-06-10T07:56:49.553Z,27.16
2017-06-10T07:59:15.369Z,28.79
2017-06-10T08:01:41.192Z,27.95
2017-06-10T08:03:58.408Z,26.03
2017-06-10T08:06:24.236Z,23.91
2017-06-10T08:08:50.166Z,23.61
2017-06-10T08:11:16.110Z,26.48
2017-06-10T08:13:43.043Z,24.27
2017-06-10T08:16:08.959Z,22.94
2017-06-10T08:18:34.884Z,21.37
2017-06-10T08:20:37.205Z,20.79
2017-06-10T08:24:39.449Z,19.82
2017-06-10T08:27:05.484Z,21.16
2017-06-10T08:29:31.562Z,21.17
2017-06-10T08:31:57.524Z,19.82
2017-06-10T08:34:23.553Z,18
2017-06-10T08:36:49.590Z,17.1
2017-06-10T08:39:15.718Z,16.15
2017-06-10T08:41:41.852Z,15.77
2017-06-10T08:44:07.988Z,17.02
2017-06-10T08:46:34.229Z,16.82
2017-06-10T08:49:00.347Z,16.53
2017-06-10T08:51:17.987Z,16.64
2017-06-10T08:53:13.682Z,16.73
2017-06-10T08:55:40.036Z,15.76
2017-06-10T08:58:06.268Z,15.25
2017-06-10T09:00:32.499Z,14.38
2017-06-10T09:02:50.229Z,14.39
2017-06-10T09:05:16.491Z,13.98
2017-06-10T09:07:26.619Z,15.16
2017-06-10T09:09:44.356Z,15.25
2017-06-10T09:13:47.065Z,16.79
2017-06-10T09:16:04.782Z,16.71
2017-06-10T09:18:13.779Z,17.98
2017-06-10T09:20:39.931Z,17
2017-06-10T09:23:06.058Z,18.63
2017-06-10T09:24:59.870Z,18.57
2017-06-10T09:27:25.958Z,21.26
2017-06-10T09:29:51.981Z,20.09
2017-06-10T09:32:18.017Z,20.67
2017-06-10T09:34:44.037Z,24.1
2017-06-10T09:37:09.940Z,27.81
2017-06-10T09:39:35.764Z,27.81
2017-06-10T09:41:52.856Z,28.67
2017-06-10T09:44:18.390Z,25.78
2017-06-10T09:46:35.400Z,28.39
2017-06-10T09:48:52.313Z,27.5
2017-06-10T09:51:17.724Z,26.61
2017-06-10T09:53:43.160Z,23.16
2017-06-10T09:56:08.554Z,22.52
2017-06-10T09:58:25.473Z,22.17
2017-06-10T10:00:36.310Z,22.08
2017-06-10T10:03:01.866Z,19.52
2017-06-10T10:05:27.372Z,20.27
2017-06-10T10:07:52.894Z,20.48
2017-06-10T10:10:18.415Z,20.29
2017-06-10T10:12:20.636Z,19.68
2017-06-10T10:14:46.193Z,19.18
2017-06-10T10:17:11.716Z,20.75
2017-06-10T10:19:37.222Z,20.45
2017-06-10T10:22:02.744Z,20.04
2017-06-10T10:24:19.748Z,21.42
2017-06-10T10:26:45.263Z,21.09
2017-06-10T10:29:10.685Z,21.59
2017-06-10T10:31:27.600Z,22.09
2017-06-10T10:33:53.005Z,22.56
2017-06-10T10:36:18.414Z,22.47
2017-06-10T10:38:35.228Z,23.61
2017-06-10T10:41:00.538Z,23.88
2017-06-10T10:43:25.861Z,25.81
2017-06-10T10:45:51.158Z,24.32
2017-06-10T10:48:16.467Z,24.15
2017-06-10T10:50:41.671Z,22.41
2017-06-10T10:53:06.881Z,23.27
2017-06-10T10:55:32.088Z,23.07
2017-06-10T10:57:48.691Z,23.46
2017-06-10T11:00:13.799Z,22.38
2017-06-10T11:02:38.901Z,21.32
2017-06-10T11:05:04.013Z,21.89
2017-06-10T11:07:29.117Z,22.39
2017-06-10T11:09:54.216Z,22.11
2017-06-10T11:12:19.322Z,23.9
2017-06-10T11:14:44.429Z,25.6
2017-06-10T11:17:01.038Z,24.01
2017-06-10T11:19:17.637Z,23.07
2017-06-10T11:21:42.746Z,23.44
2017-06-10T11:24:07.861Z,23.25
2017-06-10T11:26:32.958Z,23.72
2017-06-10T11:28:57.972Z,25.07
2017-06-10T11:31:22.964Z,24.6
2017-06-10T11:33:39.465Z,23.23
2017-06-10T11:35:55.972Z,24.21
2017-06-10T11:38:20.971Z,23.39
2017-06-10T11:40:37.407Z,23.01
2017-06-10T11:42:53.877Z,22.21
2017-06-10T11:45:18.776Z,24.19
2017-06-10T11:47:43.787Z,24.29
2017-06-10T11:50:00.292Z,22.44
2017-06-10T11:52:25.295Z,22.92
2017-06-10T11:54:41.791Z,21.94
2017-06-10T11:57:06.796Z,22.92
2017-06-10T11:59:09.892Z,22.45
2017-06-10T12:01:34.888Z,19.53
2017-06-10T12:03:59.910Z,19.91
2017-06-10T12:06:24.903Z,20.4
2017-06-10T12:08:41.419Z,20.96
2017-06-10T12:10:52.070Z,20
2017-06-10T12:13:17.073Z,20.48
2017-06-10T12:15:41.980Z,20
2017-06-10T12:18:06.874Z,20.96
2017-06-10T12:20:31.777Z,21.07
2017-06-10T12:22:56.777Z,23.5
2017-06-10T12:25:21.588Z,23.91
2017-06-10T12:27:46.480Z,23.43
2017-06-10T12:30:02.891Z,22.33
2017-06-10T12:32:27.878Z,22.33
2017-06-10T12:34:53.807Z,25.26
2017-06-10T12:37:10.310Z,22.91
2017-06-10T12:39:35.215Z,21.47
2017-06-10T12:41:51.615Z,23.01
2017-06-10T12:44:16.513Z,23.89
2017-06-10T12:46:41.413Z,24.95
2017-06-10T12:48:57.835Z,23.11
2017-06-10T12:51:22.721Z,21.95
2017-06-10T12:53:47.623Z,21.25
2017-06-10T12:56:04.034Z,22.03
2017-06-10T12:58:28.917Z,21.91
2017-06-10T13:00:53.834Z,21.64
2017-06-10T13:03:18.724Z,20.83
2017-06-10T13:05:43.624Z,21.99
2017-06-10T13:08:08.525Z,21.92
2017-06-10T13:10:33.425Z,22.31
2017-06-10T13:12:58.329Z,22.05
2017-06-10T13:15:23.233Z,22.05
2017-06-10T13:17:48.133Z,23.1
2017-06-10T13:19:50.192Z,22.31
2017-06-10T13:22:15.097Z,22.42
2017-06-10T13:24:31.517Z,21.94
2017-06-10T13:26:33.582Z,22.89
2017-06-10T13:28:58.472Z,23.36
2017-06-10T13:31:14.887Z,23.82
2017-06-10T13:33:39.761Z,24.02
2017-06-10T13:35:56.073Z,23.56
2017-06-10T13:38:20.857Z,23.25
2017-06-10T13:40:37.183Z,22.21
2017-06-10T13:43:01.965Z,22.31
2017-06-10T13:45:26.763Z,22.12
2017-06-10T13:47:51.666Z,23.18
2017-06-10T13:50:16.552Z,21.83
2017-06-10T13:52:41.465Z,21.74
2017-06-10T13:54:57.866Z,21.95
2017-06-10T13:57:22.660Z,22.05
2017-06-10T13:59:30.577Z,21.95
2017-06-10T14:01:55.471Z,22.52
2017-06-10T14:04:20.267Z,21.35
2017-06-10T14:06:45.172Z,21.75
2017-06-10T14:09:09.970Z,22.03
2017-06-10T14:11:26.276Z,20.96
2017-06-10T14:13:51.182Z,21.28
2017-06-10T14:16:16.076Z,21.39
2017-06-10T14:18:40.975Z,21.18
2017-06-10T14:20:57.401Z,20.89
2017-06-10T14:23:13.790Z,22.03
2017-06-10T14:25:38.678Z,21.96
2017-06-10T14:28:03.592Z,21.08
2017-06-10T14:30:28.588Z,21.84
2017-06-10T14:32:53.487Z,21.64
2017-06-10T14:35:18.383Z,21.92
2017-06-10T14:37:43.283Z,22.62
2017-06-10T14:40:08.191Z,22.91
2017-06-10T14:42:32.985Z,23.39
2017-06-10T14:44:57.892Z,22.8
2017-06-10T14:47:22.794Z,23.18
2017-06-10T14:49:47.696Z,22.99
2017-06-10T14:52:04.112Z,23.18
2017-06-10T14:54:20.488Z,23.85
2017-06-10T14:56:36.889Z,24.99
2017-06-10T14:59:01.692Z,24.9
2017-06-10T15:01:26.490Z,24.15
2017-06-10T15:03:42.809Z,23.07
2017-06-10T15:06:07.589Z,24.04
2017-06-10T15:08:32.393Z,24.15
2017-06-10T15:10:57.193Z,23.96
2017-06-10T15:13:21.992Z,24.82
2017-06-10T15:15:29.807Z,24.05
2017-06-10T15:17:54.585Z,24.24
2017-06-10T15:20:19.387Z,23.46
2017-06-10T15:22:35.687Z,23.38
2017-06-10T15:24:46.324Z,23.49
2017-06-10T15:27:02.755Z,23.07
2017-06-10T15:29:27.557Z,22.89
2017-06-10T15:31:52.346Z,23.95
2017-06-10T15:34:17.141Z,23.07
2017-06-10T15:36:41.943Z,23.16
2017-06-10T15:39:06.754Z,23.27
2017-06-10T15:41:08.800Z,23.17
2017-06-10T15:43:25.210Z,23.47
2017-06-10T15:45:50.016Z,23.84
2017-06-10T15:48:14.808Z,24.6
2017-06-10T15:50:39.623Z,24.13
2017-06-10T15:53:04.408Z,24.23
2017-06-10T15:55:29.229Z,23.75
2017-06-10T15:57:54.008Z,23.94
2017-06-10T16:00:10.325Z,24.24
2017-06-10T16:02:26.605Z,23.85
2017-06-10T16:04:51.400Z,23.85
2017-06-10T16:06:44.972Z,23.35
2017-06-10T16:09:09.768Z,24.62
2017-06-10T16:11:34.556Z,24.23
2017-06-10T16:13:59.363Z,24.82
2017-06-10T16:16:15.686Z,24.63
2017-06-10T16:18:40.469Z,25.01
2017-06-10T16:21:05.261Z,25.12
2017-06-10T16:23:30.063Z,24.91
2017-06-10T16:25:54.853Z,24.15
2017-06-10T16:28:11.159Z,25.09
2017-06-10T16:30:35.956Z,24.8
2017-06-10T16:32:37.988Z,25.09
2017-06-10T16:35:02.721Z,24.71
2017-06-10T16:37:19.017Z,24.89
2017-06-10T16:39:43.711Z,25.2
2017-06-10T16:42:08.408Z,24.9
2017-06-10T16:44:33.105Z,25.68
2017-06-10T16:46:57.793Z,25.27
2017-06-10T16:49:13.996Z,26.14
2017-06-10T16:51:38.697Z,25.85
2017-06-10T16:53:54.893Z,26.14
2017-06-10T16:56:19.515Z,26.61
2017-06-10T16:58:44.133Z,26.33
2017-06-10T17:00:54.230Z,27
2017-06-10T17:03:18.886Z,26.72
2017-06-10T17:05:35.013Z,26.25
2017-06-10T17:07:59.631Z,26.92
2017-06-10T17:10:24.256Z,25.67
2017-06-10T17:12:48.842Z,26.43
2017-06-10T17:15:04.993Z,26.34
2017-06-10T17:17:21.148Z,25.86
2017-06-10T17:19:45.766Z,26.25
2017-06-10T17:22:10.391Z,26.54
2017-06-10T17:24:34.964Z,25.86
2017-06-10T17:26:45.060Z,26.72
2017-06-10T17:29:09.694Z,27.48
2017-06-10T17:31:34.327Z,27.97
2017-06-10T17:33:44.437Z,27.31
2017-06-10T17:36:09.066Z,27.68
2017-06-10T17:38:33.652Z,28.45
2017-06-10T17:40:58.255Z,28.17
2017-06-10T17:43:22.818Z,27.79
2017-06-10T17:45:47.443Z,28.26
2017-06-10T17:48:03.520Z,29.02
2017-06-10T17:50:28.123Z,29.79
2017-06-10T17:52:52.719Z,29.5
2017-06-10T17:55:17.296Z,29.12
2017-06-10T17:57:41.787Z,29.02
2017-06-10T18:00:06.355Z,29.22
2017-06-10T18:02:30.943Z,29.22
2017-06-10T18:04:55.511Z,29.69
2017-06-10T18:07:11.604Z,29.51
2017-06-10T18:09:13.118Z,30.47
2017-06-10T18:11:37.680Z,30.95
2017-06-10T18:13:53.770Z,31.34
2017-06-10T18:16:18.326Z,31.73
2017-06-10T18:18:42.863Z,31.81
2017-06-10T18:21:07.389Z,31.82
2017-06-10T18:23:23.429Z,31.34
2017-06-10T18:25:39.464Z,31.62
2017-06-10T18:28:03.923Z,32
2017-06-10T18:30:28.437Z,32.84
2017-06-10T18:32:52.901Z,32.49
2017-06-10T18:35:08.912Z,32.96
2017-06-10T18:37:33.394Z,33.06
2017-06-10T18:39:57.874Z,32.96
2017-06-10T18:42:22.376Z,33.34
2017-06-10T18:44:32.417Z,32.97
2017-06-10T18:46:56.938Z,33.15
2017-06-10T18:49:21.423Z,33.25
2017-06-10T18:51:37.417Z,33.15
2017-06-10T18:53:53.452Z,33.81
2017-06-10T18:56:17.932Z,33.81
2017-06-10T18:58:42.387Z,34.11
2017-06-10T19:01:06.836Z,33.91
2017-06-10T19:03:31.288Z,34.01
2017-06-10T19:05:55.728Z,34.2
2017-06-10T19:08:20.111Z,33.91
2017-06-10T19:10:21.701Z,34.67
2017-06-10T19:12:46.171Z,35.04
2017-06-10T19:15:10.599Z,35.35
2017-06-10T19:17:35.015Z,35.54
2017-06-10T19:19:50.957Z,35.83
2017-06-10T19:22:00.982Z,36.58
2017-06-10T19:24:25.370Z,36.88
2017-06-10T19:26:49.752Z,37.82
2017-06-10T19:29:14.110Z,38.33
2017-06-10T19:31:38.475Z,38.12
2017-06-10T19:34:02.838Z,38.41
2017-06-10T19:36:18.763Z,39.09
2017-06-10T19:38:43.108Z,40.23
2017-06-10T19:40:59.008Z,39.64
2017-06-10T19:43:23.364Z,40.32
2017-06-10T19:45:47.713Z,39.86
2017-06-10T19:48:12.055Z,39.95
2017-06-10T19:50:27.861Z,39.37
2017-06-10T19:52:43.699Z,40.05
2017-06-10T19:55:08.028Z,40.71
2017-06-10T19:57:32.349Z,40.13
2017-06-10T19:59:56.650Z,40.61
2017-06-10T20:02:20.962Z,40.81
2017-06-10T20:04:45.263Z,40.71
2017-06-10T20:07:09.597Z,41.09
2017-06-10T20:09:33.904Z,41.56
2017-06-10T20:11:58.230Z,41.39
2017-06-10T20:14:22.557Z,41.39
2017-06-10T20:16:29.973Z,41.87
2017-06-10T20:18:54.239Z,42.35
2017-06-10T20:21:18.517Z,42.43
2017-06-10T20:23:42.795Z,42.91
2017-06-10T20:25:58.638Z,43.2
2017-06-10T20:28:22.935Z,43.28
2017-06-10T20:30:47.215Z,43.28
2017-06-10T20:32:54.563Z,43.37
2017-06-10T20:35:10.372Z,43.18
2017-06-10T20:37:20.854Z,43.66
2017-06-10T20:39:45.115Z,43.66
2017-06-10T20:42:09.383Z,43.76
2017-06-10T20:44:33.669Z,44.9
2017-06-10T20:46:49.474Z,45
2017-06-10T20:48:51.424Z,44.8
2017-06-10T20:51:15.697Z,44.42
2017-06-10T20:53:39.951Z,44.42
2017-06-10T20:56:04.141Z,45.75
2017-06-10T20:58:28.366Z,46.03
2017-06-10T21:00:52.607Z,46.88
2017-06-10T21:03:16.802Z,47.09
2017-06-10T21:05:41.014Z,47.36
2017-06-10T21:08:05.201Z,47.77
2017-06-10T21:10:29.409Z,47.87
2017-06-10T21:12:53.597Z,47.77
2017-06-10T21:15:09.325Z,47.48
2017-06-10T21:17:33.483Z,47.48
2017-06-10T21:19:57.642Z,48.06
2017-06-10T21:22:22.817Z,48.64
2017-06-10T21:24:47.008Z,49
2017-06-10T21:27:11.187Z,49.39
2017-06-10T21:29:35.369Z,48.81
2017-06-10T21:31:59.600Z,50.04
2017-06-10T21:34:01.197Z,50.13
2017-06-10T21:36:17.003Z,50.06
2017-06-10T21:38:32.833Z,49.77
2017-06-10T21:40:57.026Z,49.96
2017-06-10T21:43:21.313Z,48.74
2017-06-10T21:45:37.110Z,48.93
2017-06-10T21:48:01.277Z,49.96
2017-06-10T21:50:25.459Z,49.77
2017-06-10T21:52:49.643Z,50.74
2017-06-10T21:55:13.829Z,50.35
2017-06-10T21:57:29.617Z,51.1
2017-06-10T21:59:53.799Z,50.16
2017-06-10T22:02:17.983Z,49.96
2017-06-10T22:04:42.166Z,50.26
2017-06-10T22:06:43.575Z,50.54
2017-06-10T22:08:54.006Z,50.54
2017-06-10T22:11:18.270Z,50.18
2017-06-10T22:13:42.555Z,51.22
2017-06-10T22:15:58.351Z,52.16
2017-06-10T22:18:22.529Z,52.35
2017-06-10T22:20:46.705Z,52.16
2017-06-10T22:23:11.916Z,52.16
2017-06-10T22:25:21.852Z,52.64
2017-06-10T22:27:46.050Z,52.45
2017-06-10T22:30:10.231Z,53.03
2017-06-10T22:32:26.021Z,53.41
2017-06-10T22:34:50.207Z,53.67
2017-06-10T22:37:14.390Z,53.89
2017-06-10T22:39:30.174Z,52.93
2017-06-10T22:41:54.360Z,54.09
2017-06-10T22:43:55.755Z,53.99
2017-06-10T22:46:03.103Z,53.87
2017-06-10T22:48:27.284Z,53.41
2017-06-10T22:50:51.471Z,53.31
2017-06-10T22:53:15.663Z,54.16
2017-06-10T22:55:39.835Z,53.7
2017-06-10T22:58:04.015Z,53.48
2017-06-10T23:00:19.713Z,53.67
2017-06-10T23:02:35.489Z,54.25
2017-06-10T23:04:59.673Z,54.25
2017-06-10T23:07:23.862Z,54.42
2017-06-10T23:09:48.438Z,53.67
2017-06-10T23:12:12.136Z,53.58
2017-06-10T23:14:36.310Z,53.39
2017-06-10T23:17:00.498Z,53.96
2017-06-10T23:19:24.679Z,53.67
2017-06-10T23:21:31.965Z,53.96
2017-06-10T23:23:56.154Z,54.83
2017-06-10T23:26:20.236Z,54.13
2017-06-10T23:28:35.889Z,53.77
2017-06-10T23:30:51.603Z,53.67
2017-06-10T23:33:01.507Z,53.29
2017-06-10T23:35:25.633Z,53.96
2017-06-10T23:37:26.995Z,54.16
2017-06-10T23:39:28.451Z,54.9
2017-06-10T23:41:52.626Z,54.61
2017-06-10T23:44:16.802Z,55.09
2017-06-10T23:46:26.723Z,55.38
2017-06-10T23:48:50.834Z,54.8
2017-06-10T23:50:52.207Z,55
2017-06-10T23:52:53.661Z,55
2017-06-10T23:55:09.317Z,54.8
2017-06-10T23:57:33.397Z,55.74
2017-06-10T23:59:43.385Z,55.57
